Time;durP1;ratioP1;P1;durP2;ratioP2;P2;SDS_P1;SDS_P2;PMS_P1;PMS_P2;Temp;Humidity;BMP_temperature;BMP_pressure;BME280_temperature;BME280_humidity;BME280_pressure;Samples;Min_cycle;Max_cycle;Signal;HPM_P1;HPM_P2
2021/03/28 00:02:34;;;;;;;6.93;1.17;;;2.30;97.30;;;;;;5073332;28;20199;-71
2021/03/28 00:05:09;;;;;;;4.63;1.70;;;2.40;97.50;;;;;;5073326;28;20243;-71
2021/03/28 00:07:48;;;;;;;1.30;0.60;;;2.30;97.50;;;;;;5073229;28;20635;-72
2021/03/28 00:10:33;;;;;;;0.77;0.75;;;2.40;97.30;;;;;;5072926;28;20260;-71
2021/03/28 00:13:19;;;;;;;2.80;1.50;;;2.30;97.30;;;;;;5073501;28;20194;-71
2021/03/28 00:16:03;;;;;;;5.30;1.30;;;2.20;97.50;;;;;;5073352;28;20535;-71
2021/03/28 00:18:55;;;;;;;4.63;0.88;;;2.20;97.90;;;;;;5073312;28;20262;-72
2021/03/28 00:21:46;;;;;;;2.85;1.00;;;2.20;97.90;;;;;;5072534;28;20598;-71
2021/03/28 00:24:20;;;;;;;3.45;1.48;;;2.20;97.90;;;;;;5072929;28;20540;-71
2021/03/28 00:27:12;;;;;;;4.85;1.83;;;2.20;97.80;;;;;;5071857;28;20662;-72
2021/03/28 00:29:53;;;;;;;2.47;2.20;;;2.20;97.70;;;;;;5074274;28;20169;-70
2021/03/28 00:32:56;;;;;;;3.13;2.55;;;2.10;97.50;;;;;;5076732;28;20202;-72
2021/03/28 00:35:34;;;;;;;5.45;1.75;;;2.00;97.80;;;;;;5054675;28;20178;-72
2021/03/28 00:38:18;;;;;;;1.92;1.83;;;2.20;97.80;;;;;;5073948;28;20181;-72
2021/03/28 00:41:00;;;;;;;2.35;1.80;;;2.20;97.70;;;;;;5076623;28;20206;-70
2021/03/28 00:43:28;;;;;;;4.40;2.20;;;2.20;97.50;;;;;;5075309;28;20207;-70
2021/03/28 00:45:57;;;;;;;4.22;1.85;;;2.10;97.30;;;;;;5076662;28;20291;-72
2021/03/28 00:48:26;;;;;;;2.75;1.52;;;1.90;97.70;;;;;;5076489;28;20167;-71
2021/03/28 00:51:12;;;;;;;3.25;1.00;;;2.00;97.80;;;;;;5076345;28;20212;-70
2021/03/28 00:53:51;;;;;;;2.88;1.10;;;2.10;97.60;;;;;;5076014;28;20630;-71
2021/03/28 00:56:38;;;;;;;1.60;1.13;;;2.10;97.50;;;;;;5076561;28;20182;-72
2021/03/28 00:59:26;;;;;;;1.73;1.30;;;2.10;97.20;;;;;;5076152;28;20536;-72
2021/03/28 01:02:10;;;;;;;4.53;2.00;;;2.10;97.30;;;;;;5076207;28;20186;-71
2021/03/28 01:04:54;;;;;;;2.53;1.77;;;2.00;97.30;;;;;;5076883;28;20193;-72
2021/03/28 01:07:43;;;;;;;1.23;1.13;;;1.90;97.70;;;;;;5076228;28;20644;-70
2021/03/28 01:10:46;;;;;;;1.38;1.08;;;1.80;98.10;;;;;;5076201;28;20244;-70
2021/03/28 01:13:24;;;;;;;4.05;0.85;;;1.70;98.00;;;;;;5075988;28;20193;-72
2021/03/28 01:16:19;;;;;;;1.95;1.10;;;1.70;98.30;;;;;;5076370;28;20168;-70
2021/03/28 01:19:22;;;;;;;4.97;0.70;;;1.80;98.30;;;;;;5076043;28;20227;-72
2021/03/28 01:22:15;;;;;;;3.03;1.15;;;1.90;98.00;;;;;;5075761;28;20276;-71
2021/03/28 01:24:49;;;;;;;1.00;1.00;;;1.90;98.10;;;;;;5075962;28;20185;-70
2021/03/28 01:27:21;;;;;;;0.90;0.90;;;1.90;97.90;;;;;;5076115;28;20633;-70
2021/03/28 01:29:49;;;;;;;2.97;0.90;;;1.80;98.00;;;;;;5075658;28;20535;-71
2021/03/28 01:32:42;;;;;;;1.70;1.25;;;1.70;98.40;;;;;;5075853;28;20195;-70
2021/03/28 01:35:11;;;;;;;2.47;0.90;;;1.80;98.40;;;;;;5075814;28;20167;-71
2021/03/28 01:37:47;;;;;;;1.15;1.05;;;1.90;98.20;;;;;;5075770;28;20181;-71
2021/03/28 01:40:44;;;;;;;1.85;1.08;;;1.90;98.00;;;;;;5075173;28;20173;-72
2021/03/28 01:43:40;;;;;;;5.32;0.90;;;1.90;97.90;;;;;;5067934;28;20285;-70
2021/03/28 01:46:50;;;;;;;1.98;0.70;;;1.90;97.70;;;;;;5075674;28;20205;-72
2021/03/28 01:49:49;;;;;;;3.95;1.05;;;1.90;97.80;;;;;;5075697;28;20158;-71
2021/03/28 01:52:21;;;;;;;1.35;0.65;;;1.80;97.70;;;;;;5075395;28;20209;-72
2021/03/28 01:55:16;;;;;;;1.58;1.10;;;1.60;98.20;;;;;;5075286;28;20166;-71
2021/03/28 01:58:16;;;;;;;3.90;1.10;;;1.50;98.40;;;;;;5070467;28;20199;-71
2021/03/28 02:00:47;;;;;;;2.67;1.15;;;1.50;98.60;;;;;;5075302;28;20182;-70
2021/03/28 02:03:22;;;;;;;0.82;0.73;;;1.60;98.50;;;;;;5075303;28;20277;-71
2021/03/28 02:06:04;;;;;;;5.10;1.48;;;1.70;98.30;;;;;;5075454;28;20193;-71
2021/03/28 02:08:53;;;;;;;1.02;0.63;;;1.70;98.10;;;;;;5075173;28;20169;-72
2021/03/28 02:11:49;;;;;;;3.22;0.95;;;1.80;98.00;;;;;;5075147;28;20176;-71
2021/03/28 02:14:55;;;;;;;4.22;1.40;;;1.80;97.80;;;;;;5074940;28;20162;-70
2021/03/28 02:17:42;;;;;;;3.47;0.88;;;1.70;98.20;;;;;;5063477;28;20182;-70
2021/03/28 02:20:31;;;;;;;2.05;1.15;;;1.60;97.90;;;;;;5074787;28;20248;-72
2021/03/28 02:23:42;;;;;;;0.55;0.55;;;1.60;98.20;;;;;;5074762;28;20209;-71
2021/03/28 02:26:32;;;;;;;3.75;0.77;;;1.50;98.50;;;;;;5073465;28;20213;-72
2021/03/28 02:29:20;;;;;;;1.52;0.98;;;1.60;98.60;;;;;;5074706;28;20193;-72
2021/03/28 02:32:10;;;;;;;2.00;1.80;;;1.70;98.60;;;;;;5074699;28;20573;-70
2021/03/28 02:34:51;;;;;;;2.25;1.20;;;1.70;98.70;;;;;;5075052;28;20618;-71
2021/03/28 02:37:25;;;;;;;0.80;0.80;;;1.70;98.60;;;;;;5074541;28;20264;-70
2021/03/28 02:40:15;;;;;;;1.15;1.05;;;1.60;98.70;;;;;;5074280;28;20260;-72
2021/03/28 02:42:58;;;;;;;3.60;1.20;;;1.60;98.70;;;;;;5074192;28;20554;-72
2021/03/28 02:45:27;;;;;;;5.57;0.77;;;1.40;98.60;;;;;;5074274;28;20197;-71
2021/03/28 02:48:23;;;;;;;6.68;1.27;;;1.10;98.90;;;;;;5074462;28;20165;-71
2021/03/28 02:50:52;;;;;;;0.75;0.75;;;1.00;99.50;;;;;;5074204;28;20171;-71
2021/03/28 02:53:40;;;;;;;1.95;0.70;;;1.20;99.60;;;;;;5074110;28;20192;-70
2021/03/28 02:56:16;;;;;;;1.05;0.95;;;1.20;99.40;;;;;;5074347;28;20177;-71
2021/03/28 02:58:57;;;;;;;1.52;1.42;;;1.20;99.40;;;;;;5074129;28;20530;-72
2021/03/28 03:01:41;;;;;;;1.75;1.45;;;1.40;99.40;;;;;;5074242;28;20626;-71
2021/03/28 03:04:24;;;;;;;1.95;1.13;;;1.40;99.20;;;;;;5074063;28;20658;-71
2021/03/28 03:07:16;;;;;;;5.85;1.20;;;1.30;99.40;;;;;;5074135;28;20597;-72
2021/03/28 03:10:03;;;;;;;0.40;0.40;;;1.30;99.30;;;;;;5073752;28;20201;-72
2021/03/28 03:12:39;;;;;;;0.90;0.90;;;1.20;99.50;;;;;;5073720;28;20280;-72
2021/03/28 03:15:13;;;;;;;7.70;1.05;;;1.30;99.60;;;;;;5074007;28;20656;-71
2021/03/28 03:18:07;;;;;;;7.78;1.92;;;1.40;99.30;;;;;;5073895;28;20173;-71
2021/03/28 03:21:04;;;;;;;2.85;1.08;;;1.50;99.20;;;;;;5073500;28;20174;-70
2021/03/28 03:23:51;;;;;;;1.67;1.00;;;1.40;99.00;;;;;;5073688;28;20212;-70
2021/03/28 03:26:54;;;;;;;7.82;0.93;;;1.50;99.00;;;;;;5073758;28;20277;-70
2021/03/28 03:29:59;;;;;;;0.82;0.82;;;1.50;98.80;;;;;;5073427;28;20185;-71
2021/03/28 03:32:44;;;;;;;2.33;0.90;;;1.50;98.80;;;;;;5073757;28;20185;-70
2021/03/28 03:35:27;;;;;;;7.28;0.80;;;1.50;98.90;;;;;;5073922;28;20170;-71
2021/03/28 03:38:15;;;;;;;0.70;0.70;;;1.40;98.90;;;;;;5073542;28;20180;-71
2021/03/28 03:41:05;;;;;;;1.10;0.85;;;1.40;99.00;;;;;;5072198;28;20178;-70
2021/03/28 03:44:08;;;;;;;1.83;0.82;;;1.40;99.10;;;;;;5073814;28;20618;-71
2021/03/28 03:46:44;;;;;;;1.27;0.80;;;1.40;98.90;;;;;;5073496;28;20235;-71
2021/03/28 03:49:20;;;;;;;7.35;0.90;;;1.40;98.90;;;;;;5073300;28;20177;-71
2021/03/28 03:52:04;;;;;;;1.95;0.80;;;1.30;99.10;;;;;;5071976;28;20185;-71
2021/03/28 03:54:51;;;;;;;0.70;0.65;;;1.30;99.10;;;;;;5073274;28;20207;-70
2021/03/28 03:57:42;;;;;;;0.80;0.80;;;1.30;99.30;;;;;;5073447;28;20170;-71
2021/03/28 04:00:17;;;;;;;1.38;1.10;;;1.30;99.30;;;;;;5073097;28;20165;-71
2021/03/28 04:03:04;;;;;;;4.32;0.90;;;1.40;99.20;;;;;;5073310;28;20205;-70
2021/03/28 04:05:52;;;;;;;1.63;1.38;;;1.40;99.00;;;;;;5076299;28;20193;-71
2021/03/28 04:08:56;;;;;;;1.38;1.27;;;1.40;99.10;;;;;;5077535;28;20180;-70
2021/03/28 04:11:57;;;;;;;9.80;2.08;;;1.50;99.00;;;;;;5055344;28;20170;-71
2021/03/28 04:14:39;;;;;;;4.13;0.90;;;1.40;99.00;;;;;;5055124;28;20169;-72
2021/03/28 04:17:36;;;;;;;1.75;1.02;;;1.40;99.10;;;;;;5073332;28;20182;-71
2021/03/28 04:20:45;;;;;;;1.85;1.15;;;1.40;99.30;;;;;;5077119;28;20165;-70
2021/03/28 04:23:36;;;;;;;1.00;0.60;;;1.20;99.20;;;;;;5071386;28;20212;-71
2021/03/28 04:26:11;;;;;;;8.63;0.93;;;1.30;99.40;;;;;;5077170;28;20197;-71
2021/03/28 04:28:47;;;;;;;3.10;1.05;;;1.30;99.30;;;;;;5077129;28;20203;-71
2021/03/28 04:31:40;;;;;;;0.70;0.68;;;1.30;99.30;;;;;;5077365;28;20224;-70
2021/03/28 04:34:38;;;;;;;1.15;0.90;;;1.30;99.20;;;;;;5077034;28;20229;-70
2021/03/28 04:37:09;;;;;;;1.27;0.75;;;1.40;99.20;;;;;;5077015;28;20234;-71
2021/03/28 04:39:50;;;;;;;1.10;1.00;;;1.40;99.10;;;;;;5076705;28;20173;-71
2021/03/28 04:42:30;;;;;;;2.78;1.30;;;1.40;99.10;;;;;;5075288;28;20663;-71
2021/03/28 04:45:11;;;;;;;2.40;0.98;;;1.40;98.90;;;;;;5076574;28;20185;-71
2021/03/28 04:48:15;;;;;;;5.53;1.20;;;1.10;99.10;;;;;;5077293;28;20166;-71
2021/03/28 04:50:57;;;;;;;0.93;0.90;;;0.80;99.80;;;;;;5075182;28;20542;-70
2021/03/28 04:53:44;;;;;;;4.00;1.20;;;0.90;99.90;;;;;;5076461;28;20182;-71
2021/03/28 04:56:15;;;;;;;4.22;1.00;;;1.00;99.90;;;;;;5075302;28;20230;-70
2021/03/28 04:59:12;;;;;;;2.58;1.17;;;1.10;99.90;;;;;;5076439;28;20223;-71
2021/03/28 05:02:05;;;;;;;4.63;1.67;;;1.20;99.90;;;;;;5076409;28;20181;-71
2021/03/28 05:05:05;;;;;;;3.72;1.45;;;1.00;99.70;;;;;;5076144;28;20258;-71
2021/03/28 05:07:52;;;;;;;3.05;1.70;;;1.00;99.70;;;;;;5076839;28;20170;-70
2021/03/28 05:10:35;;;;;;;2.75;1.17;;;1.10;99.70;;;;;;5076099;28;20166;-71
2021/03/28 05:13:38;;;;;;;1.30;0.80;;;0.90;99.60;;;;;;5076094;28;20197;-71
2021/03/28 05:16:22;;;;;;;6.10;1.55;;;0.80;99.90;;;;;;5076557;28;20174;-71
2021/03/28 05:18:48;;;;;;;1.50;0.70;;;1.00;99.90;;;;;;5076026;28;20178;-70
2021/03/28 05:21:34;;;;;;;2.47;1.00;;;1.10;99.90;;;;;;5076277;28;20674;-72
2021/03/28 05:24:36;;;;;;;0.73;0.70;;;1.20;99.90;;;;;;5076077;28;20154;-71
2021/03/28 05:27:23;;;;;;;1.60;0.90;;;1.30;99.70;;;;;;5076028;28;20177;-72
2021/03/28 05:30:20;;;;;;;0.77;0.77;;;1.40;99.30;;;;;;5075636;28;20174;-70
2021/03/28 05:33:14;;;;;;;1.92;0.98;;;1.40;99.40;;;;;;5066739;28;20213;-71
2021/03/28 05:36:09;;;;;;;5.30;0.93;;;1.50;99.40;;;;;;5075665;28;20534;-71
2021/03/28 05:38:55;;;;;;;9.52;1.13;;;1.30;99.00;;;;;;5075714;28;20180;-72
2021/03/28 05:41:23;;;;;;;2.47;0.80;;;1.10;99.30;;;;;;5074522;28;20270;-72
2021/03/28 05:44:26;;;;;;;2.13;1.35;;;0.90;99.80;;;;;;5074157;28;20194;-70
2021/03/28 05:47:20;;;;;;;3.67;0.93;;;1.00;99.90;;;;;;5075738;28;20185;-70
2021/03/28 05:49:55;;;;;;;1.73;0.90;;;1.20;99.90;;;;;;5075487;28;20166;-72
2021/03/28 05:52:33;;;;;;;0.82;0.80;;;1.40;99.70;;;;;;5075529;28;20236;-71
2021/03/28 05:55:17;;;;;;;1.50;1.40;;;1.60;99.40;;;;;;5075352;28;20666;-72
2021/03/28 05:58:28;;;;;;;1.70;1.60;;;1.70;99.20;;;;;;5074118;28;20627;-71
2021/03/28 06:01:41;;;;;;;3.33;1.50;;;1.80;98.70;;;;;;5075154;28;20155;-72
2021/03/28 06:04:45;;;;;;;2.92;1.30;;;1.80;98.30;;;;;;5038817;28;20658;-71
2021/03/28 06:07:40;;;;;;;2.88;1.33;;;1.90;98.40;;;;;;5075134;28;20174;-72
2021/03/28 06:10:31;;;;;;;6.03;1.60;;;2.00;98.20;;;;;;5075299;28;20171;-71
2021/03/28 06:13:11;;;;;;;1.70;1.13;;;2.00;98.20;;;;;;5075145;28;20524;-70
2021/03/28 06:15:43;;;;;;;3.03;2.55;;;2.10;97.90;;;;;;5074999;28;20726;-72
2021/03/28 06:18:34;;;;;;;1.88;1.15;;;2.20;97.80;;;;;;5074995;28;20180;-71
2021/03/28 06:21:23;;;;;;;0.93;0.85;;;2.20;97.60;;;;;;5074498;28;20663;-71
2021/03/28 06:24:42;;;;;;;2.25;1.67;;;2.10;97.50;;;;;;5074701;28;20198;-71
2021/03/28 06:27:30;;;;;;;1.67;1.58;;;2.20;97.70;;;;;;5052300;28;20583;-71
2021/03/28 06:30:10;;;;;;;1.30;1.08;;;2.40;97.60;;;;;;5073321;28;20176;-71
2021/03/28 06:32:52;;;;;;;7.03;1.50;;;2.70;97.20;;;;;;5074568;28;20609;-70
2021/03/28 06:35:47;;;;;;;1.42;1.30;;;2.80;96.80;;;;;;5074704;28;20535;-70
2021/03/28 06:38:43;;;;;;;3.08;1.80;;;3.00;96.90;;;;;;5064251;28;20263;-71
2021/03/28 06:41:39;;;;;;;4.00;2.20;;;3.60;95.90;;;;;;5074497;28;20628;-71
2021/03/28 06:44:26;;;;;;;6.25;2.30;;;4.30;94.50;;;;;;5074297;28;20177;-71
2021/03/28 06:47:22;;;;;;;6.00;3.55;;;5.10;92.80;;;;;;5074344;28;20173;-72
2021/03/28 06:50:28;;;;;;;5.78;2.15;;;6.10;91.10;;;;;;5074092;28;20251;-71
2021/03/28 06:53:32;;;;;;;6.15;3.30;;;7.20;86.90;;;;;;5074345;28;20192;-71
2021/03/28 06:56:16;;;;;;;5.20;3.17;;;8.70;82.70;;;;;;5074513;28;20543;-71
2021/03/28 06:59:12;;;;;;;5.78;3.63;;;10.60;72.30;;;;;;5074096;28;20536;-71
2021/03/28 07:01:50;;;;;;;6.23;3.30;;;11.80;62.90;;;;;;5074184;28;20226;-71
2021/03/28 07:05:04;;;;;;;5.00;2.87;;;13.60;57.50;;;;;;5074084;28;20869;-73
2021/03/28 07:07:46;;;;;;;3.20;2.60;;;15.10;50.60;;;;;;5073887;28;20435;-72
2021/03/28 07:10:40;;;;;;;3.07;2.77;;;16.70;47.40;;;;;;5073944;28;20899;-71
2021/03/28 07:13:13;;;;;;;8.93;4.73;;;18.40;44.90;;;;;;5073748;28;20519;-71
2021/03/28 07:16:03;;;;;;;3.83;2.93;;;19.80;41.00;;;;;;5073749;28;20398;-72
2021/03/28 07:18:47;;;;;;;6.20;3.43;;;21.10;38.30;;;;;;5073985;28;20400;-71
2021/03/28 07:21:30;;;;;;;5.13;2.57;;;22.30;35.10;;;;;;5073690;28;20406;-72
2021/03/28 07:24:12;;;;;;;4.30;3.13;;;22.30;33.80;;;;;;5073640;28;20445;-73
2021/03/28 07:26:50;;;;;;;6.90;3.57;;;23.20;33.30;;;;;;5073608;28;20450;-72
2021/03/28 07:29:43;;;;;;;5.43;3.80;;;24.00;32.20;;;;;;5073599;28;20382;-72
2021/03/28 07:32:09;;;;;;;3.53;2.43;;;24.40;30.80;;;;;;5073578;28;20805;-73
2021/03/28 07:34:59;;;;;;;5.03;1.73;;;24.70;30.60;;;;;;5073777;28;20439;-71
2021/03/28 07:37:45;;;;;;;4.63;1.87;;;25.10;29.10;;;;;;5073756;28;20173;-71
2021/03/28 07:40:42;;;;;;;1.93;1.43;;;25.50;28.70;;;;;;5072455;28;20422;-72
2021/03/28 07:43:32;;;;;;;6.13;2.83;;;25.70;28.00;;;;;;5073361;28;20419;-71
2021/03/28 07:46:27;;;;;;;4.70;3.60;;;25.80;28.50;;;;;;5072150;28;20454;-72
2021/03/28 07:49:34;;;;;;;4.90;3.23;;;25.60;28.60;;;;;;5073347;28;20808;-72
2021/03/28 07:52:37;;;;;;;3.77;2.60;;;25.70;27.80;;;;;;5073513;28;20401;-71
2021/03/28 07:55:21;;;;;;;3.73;2.57;;;24.60;27.90;;;;;;5073281;28;20442;-71
2021/03/28 07:57:46;;;;;;;2.67;2.00;;;24.30;29.30;;;;;;5073528;28;20396;-73
2021/03/28 08:00:31;;;;;;;3.20;2.47;;;24.70;29.20;;;;;;5073113;28;20412;-71
2021/03/28 08:03:15;;;;;;;4.40;2.30;;;25.00;28.40;;;;;;5073118;28;20330;-72
2021/03/28 08:06:01;;;;;;;2.93;1.80;;;25.10;26.70;;;;;;5073136;28;20436;-73
2021/03/28 08:08:46;;;;;;;4.53;2.20;;;25.70;27.10;;;;;;5073223;28;20391;-73
2021/03/28 08:11:36;;;;;;;2.40;1.70;;;26.40;27.20;;;;;;5073430;28;20757;-73
2021/03/28 08:14:44;;;;;;;6.20;1.20;;;27.30;25.00;;;;;;5073115;28;20408;-73
2021/03/28 08:17:52;;;;;;;5.40;1.27;;;26.00;24.40;;;;;;5073313;28;20404;-73
2021/03/28 08:20:35;;;;;;;2.90;1.10;;;25.30;24.80;;;;;;5072903;28;20803;-73
2021/03/28 08:23:33;;;;;;;2.07;1.13;;;24.60;25.30;;;;;;5072953;28;20443;-71
2021/03/28 08:26:14;;;;;;;4.73;1.40;;;24.50;25.70;;;;;;5073001;28;20929;-73
2021/03/28 08:29:05;;;;;;;3.40;1.37;;;24.30;25.90;;;;;;5072934;28;20403;-72
2021/03/28 08:31:55;;;;;;;1.73;1.07;;;23.20;25.00;;;;;;5073108;28;20404;-71
2021/03/28 08:34:42;;;;;;;4.30;1.90;;;21.20;26.10;;;;;;5073020;28;20737;-71
2021/03/28 08:37:26;;;;;;;2.20;1.20;;;20.20;27.40;;;;;;5072847;28;20397;-72
2021/03/28 08:40:16;;;;;;;2.03;1.27;;;19.30;27.70;;;;;;5072756;28;20425;-72
2021/03/28 08:43:00;;;;;;;1.50;0.80;;;18.70;28.40;;;;;;5071472;28;20452;-71
2021/03/28 08:45:29;;;;;;;3.50;1.10;;;19.30;28.40;;;;;;5072707;28;20822;-73
2021/03/28 08:48:07;;;;;;;3.50;1.30;;;19.90;28.30;;;;;;5072789;28;20407;-73
2021/03/28 08:50:51;;;;;;;3.63;1.10;;;20.40;28.00;;;;;;5073808;28;20402;-71
2021/03/28 08:53:32;;;;;;;1.80;1.20;;;21.30;27.60;;;;;;5075373;28;20439;-73
2021/03/28 08:56:19;;;;;;;3.30;1.00;;;22.50;26.90;;;;;;5076421;28;20462;-73
2021/03/28 08:59:10;;;;;;;2.83;1.33;;;22.80;26.50;;;;;;5076260;28;20378;-71
2021/03/28 09:01:47;;;;;;;2.20;0.90;;;23.40;26.20;;;;;;5076544;28;20457;-72
2021/03/28 09:04:48;;;;;;;2.23;1.20;;;22.40;26.00;;;;;;5076578;28;20407;-72
2021/03/28 09:07:27;;;;;;;1.90;0.93;;;22.20;26.40;;;;;;5076354;28;20390;-73
2021/03/28 09:10:11;;;;;;;2.23;1.30;;;22.40;26.20;;;;;;5076158;28;20382;-71
2021/03/28 09:13:03;;;;;;;1.07;0.90;;;22.90;26.20;;;;;;5076131;28;20477;-71
2021/03/28 09:16:10;;;;;;;3.23;1.10;;;23.60;26.70;;;;;;5076299;28;20400;-73
2021/03/28 09:19:05;;;;;;;2.40;1.70;;;25.80;25.70;;;;;;5076007;28;20392;-71
2021/03/28 09:22:11;;;;;;;2.50;1.17;;;25.90;24.50;;;;;;5076105;28;20400;-74
2021/03/28 09:24:52;;;;;;;1.87;1.67;;;25.90;24.40;;;;;;5075892;28;20444;-73
2021/03/28 09:27:45;;;;;;;2.47;1.30;;;26.60;24.80;;;;;;5076204;28;20731;-71
2021/03/28 09:30:30;;;;;;;6.83;1.43;;;25.50;24.60;;;;;;5074521;28;20798;-73
2021/03/28 09:33:19;;;;;;;3.10;1.20;;;23.60;25.30;;;;;;5075714;28;20466;-71
2021/03/28 09:35:47;;;;;;;1.63;1.43;;;22.70;27.70;;;;;;5076176;28;20437;-71
2021/03/28 09:38:40;;;;;;;5.37;1.27;;;22.10;27.50;;;;;;5075774;28;20402;-72
2021/03/28 09:41:21;;;;;;;3.67;1.50;;;22.90;26.90;;;;;;5075825;28;20437;-72
2021/03/28 09:43:53;;;;;;;2.50;1.30;;;22.70;26.20;;;;;;5075963;28;20423;-72
2021/03/28 09:46:21;;;;;;;5.37;1.00;;;21.80;26.70;;;;;;5075455;28;20511;-71
2021/03/28 09:49:26;;;;;;;1.37;1.27;;;22.20;27.10;;;;;;5075096;28;20408;-71
2021/03/28 09:52:20;;;;;;;2.30;1.50;;;22.90;26.90;;;;;;5072390;28;20440;-70
2021/03/28 09:54:49;;;;;;;3.43;2.33;;;23.60;26.20;;;;;;5075378;28;20781;-70
2021/03/28 09:57:50;;;;;;;2.20;0.97;;;24.10;25.90;;;;;;5075402;28;20407;-71
2021/03/28 10:00:53;;;;;;;2.77;1.67;;;24.60;25.50;;;;;;5063114;28;20397;-71
2021/03/28 10:03:32;;;;;;;2.27;1.20;;;23.70;25.90;;;;;;5074240;28;20480;-72
2021/03/28 10:06:04;;;;;;;3.27;1.17;;;23.50;25.70;;;;;;5075052;28;20453;-72
2021/03/28 10:08:47;;;;;;;3.43;1.03;;;22.30;27.10;;;;;;5075230;28;20472;-72
2021/03/28 10:11:23;;;;;;;2.40;1.20;;;23.00;27.00;;;;;;5075251;28;20391;-73
2021/03/28 10:14:31;;;;;;;0.80;0.80;;;23.70;26.30;;;;;;5074991;28;20400;-71
2021/03/28 10:17:38;;;;;;;4.70;1.40;;;23.60;26.30;;;;;;5075643;28;20378;-73
2021/03/28 10:20:20;;;;;;;2.83;1.10;;;22.70;26.00;;;;;;5073532;28;20935;-73
2021/03/28 10:23:09;;;;;;;2.03;1.00;;;23.80;26.50;;;;;;5074635;28;20812;-73
2021/03/28 10:25:47;;;;;;;5.20;1.10;;;23.10;26.60;;;;;;5074715;28;20485;-73
2021/03/28 10:28:34;;;;;;;3.57;1.30;;;22.50;27.40;;;;;;5074905;28;20392;-73
2021/03/28 10:31:20;;;;;;;3.53;1.30;;;22.30;26.60;;;;;;5074636;28;20396;-73
2021/03/28 10:33:51;;;;;;;1.73;1.33;;;22.80;27.50;;;;;;5074606;28;20440;-71
2021/03/28 10:36:39;;;;;;;4.37;1.30;;;23.80;26.90;;;;;;5073202;28;20413;-73
2021/03/28 10:39:19;;;;;;;2.50;1.30;;;22.90;25.90;;;;;;5074519;28;20420;-72
2021/03/28 10:42:09;;;;;;;0.97;0.97;;;21.90;27.30;;;;;;5073323;28;20403;-73
2021/03/28 10:44:59;;;;;;;7.80;1.83;;;21.70;28.00;;;;;;5074750;28;20457;-71
2021/03/28 10:48:03;;;;;;;1.53;1.10;;;20.90;27.80;;;;;;5074484;28;20487;-73
2021/03/28 10:50:56;;;;;;;1.40;1.30;;;20.80;27.70;;;;;;5065718;28;20726;-73
2021/03/28 10:53:56;;;;;;;1.63;1.17;;;20.00;28.30;;;;;;5074142;28;20419;-73
2021/03/28 10:56:40;;;;;;;1.60;1.00;;;19.60;28.80;;;;;;5074243;28;20411;-72
2021/03/28 10:59:27;;;;;;;2.20;1.00;;;18.70;28.90;;;;;;5073915;28;20392;-72
2021/03/28 11:02:43;;;;;;;2.20;1.13;;;18.50;29.80;;;;;;5074231;28;20418;-73
2021/03/28 11:05:28;;;;;;;3.33;1.97;;;17.60;29.80;;;;;;5061909;28;20459;-73
2021/03/28 11:08:15;;;;;;;1.90;1.43;;;17.10;29.90;;;;;;5074034;28;20398;-72
2021/03/28 11:10:59;;;;;;;1.33;1.03;;;16.60;30.40;;;;;;5073882;28;20392;-73
2021/03/28 11:13:57;;;;;;;3.53;1.40;;;16.10;31.70;;;;;;5072248;28;20947;-74
2021/03/28 11:16:42;;;;;;;1.93;1.20;;;16.20;32.70;;;;;;5074071;28;20424;-71
2021/03/28 11:19:32;;;;;;;1.33;1.10;;;16.10;31.80;;;;;;5073754;28;20407;-72
2021/03/28 11:22:25;;;;;;;1.33;1.20;;;15.70;32.00;;;;;;5073434;28;20482;-71
2021/03/28 11:25:26;;;;;;;2.33;1.13;;;15.20;32.60;;;;;;5073647;28;20955;-72
2021/03/28 11:28:25;;;;;;;8.53;1.77;;;15.10;34.10;;;;;;5073723;28;20402;-72
2021/03/28 11:31:24;;;;;;;2.07;0.93;;;15.00;33.70;;;;;;5073575;28;20495;-71
2021/03/28 11:34:00;;;;;;;1.07;0.97;;;14.80;33.90;;;;;;5073445;28;20831;-72
2021/03/28 11:36:28;;;;;;;2.93;1.90;;;14.30;33.70;;;;;;5073760;28;20765;-72
2021/03/28 11:39:15;;;;;;;1.60;1.03;;;14.20;34.50;;;;;;5073683;28;20455;-71
2021/03/28 11:41:58;;;;;;;1.83;1.20;;;14.20;34.50;;;;;;5073496;28;20445;-71
2021/03/28 11:44:30;;;;;;;1.93;1.20;;;14.20;34.50;;;;;;5073396;28;20384;-73
2021/03/28 11:47:13;;;;;;;2.83;0.90;;;14.00;34.40;;;;;;5072252;28;20407;-73
2021/03/28 11:50:01;;;;;;;1.27;1.17;;;14.30;34.70;;;;;;5073241;28;20400;-71
2021/03/28 11:52:32;;;;;;;1.27;1.17;;;14.20;34.60;;;;;;5073402;28;20420;-73
2021/03/28 11:55:09;;;;;;;3.87;1.00;;;14.20;35.10;;;;;;5072108;28;20888;-71
2021/03/28 11:57:36;;;;;;;1.27;1.03;;;14.00;34.40;;;;;;5073344;28;20433;-73
2021/03/28 12:00:37;;;;;;;5.43;1.73;;;14.00;35.00;;;;;;5073305;28;20947;-72
2021/03/28 12:03:21;;;;;;;1.43;1.20;;;13.70;35.70;;;;;;5073215;28;20411;-73
2021/03/28 12:06:02;;;;;;;2.33;0.83;;;13.50;36.40;;;;;;5073172;28;20459;-72
2021/03/28 12:08:44;;;;;;;4.27;1.70;;;13.20;36.40;;;;;;5073352;28;20395;-72
2021/03/28 12:11:45;;;;;;;2.33;1.00;;;13.30;37.00;;;;;;5073397;28;20808;-72
2021/03/28 12:14:13;;;;;;;4.00;1.37;;;13.10;36.80;;;;;;5073139;28;20480;-72
2021/03/28 12:17:10;;;;;;;2.07;1.13;;;13.20;36.80;;;;;;5073309;28;20805;-72
2021/03/28 12:20:02;;;;;;;2.00;1.10;;;13.30;37.00;;;;;;5073027;28;20774;-72
2021/03/28 12:22:42;;;;;;;1.37;1.17;;;13.10;36.40;;;;;;5069748;28;20465;-72
2021/03/28 12:25:13;;;;;;;1.20;0.87;;;13.10;36.40;;;;;;5073729;28;20449;-72
2021/03/28 12:27:57;;;;;;;0.87;0.70;;;13.20;37.00;;;;;;5076798;28;20411;-72
2021/03/28 12:30:29;;;;;;;3.87;1.00;;;13.20;37.00;;;;;;5076899;28;20499;-73
2021/03/28 12:33:04;;;;;;;3.47;1.13;;;13.10;36.60;;;;;;5076790;28;20424;-72
2021/03/28 12:35:39;;;;;;;2.53;0.93;;;13.30;36.50;;;;;;5077028;28;20401;-71
2021/03/28 12:38:27;;;;;;;3.70;1.10;;;13.10;36.20;;;;;;5077019;28;20956;-73
2021/03/28 12:41:11;;;;;;;1.50;1.40;;;13.00;36.70;;;;;;5075340;28;20767;-73
2021/03/28 12:43:51;;;;;;;2.87;1.13;;;12.90;36.50;;;;;;5076590;28;20437;-73
2021/03/28 12:46:35;;;;;;;4.50;1.27;;;12.80;37.50;;;;;;5076838;28;20780;-73
2021/03/28 12:49:13;;;;;;;1.73;1.03;;;12.80;37.40;;;;;;5076554;28;20430;-73
2021/03/28 12:51:44;;;;;;;1.33;1.20;;;12.80;37.90;;;;;;5076812;28;20428;-72
2021/03/28 12:54:35;;;;;;;1.30;1.13;;;12.90;37.70;;;;;;5076834;28;20399;-72
2021/03/28 12:57:28;;;;;;;2.67;1.17;;;12.80;37.80;;;;;;5076663;28;20402;-72
2021/03/28 13:00:14;;;;;;;4.30;1.07;;;12.60;36.20;;;;;;5076278;28;20451;-73
2021/03/28 13:02:40;;;;;;;3.17;1.10;;;12.60;36.10;;;;;;5064912;28;20482;-72
2021/03/28 13:05:12;;;;;;;1.20;1.10;;;12.50;37.10;;;;;;5076253;28;20536;-73
2021/03/28 13:07:40;;;;;;;0.80;0.80;;;12.60;38.10;;;;;;5076422;28;20404;-73
2021/03/28 13:10:19;;;;;;;3.23;1.53;;;12.60;36.80;;;;;;5076120;28;20401;-72
2021/03/28 13:12:51;;;;;;;3.33;1.20;;;12.60;37.20;;;;;;5076483;28;20430;-72
2021/03/28 13:15:30;;;;;;;1.70;1.20;;;12.70;37.50;;;;;;5076429;28;20804;-72
2021/03/28 13:18:19;;;;;;;1.07;0.93;;;12.90;37.70;;;;;;5076304;28;20763;-73
2021/03/28 13:20:49;;;;;;;1.37;1.13;;;12.90;37.20;;;;;;5074567;28;20944;-73
2021/03/28 13:23:29;;;;;;;1.67;1.00;;;13.00;37.10;;;;;;5075882;28;20443;-72
2021/03/28 13:26:07;;;;;;;4.67;2.67;;;13.10;36.20;;;;;;5076124;28;20451;-72
2021/03/28 13:28:33;;;;;;;1.20;1.10;;;13.00;36.40;;;;;;5075793;28;20892;-72
2021/03/28 13:31:32;;;;;;;1.73;1.47;;;13.00;36.40;;;;;;5075630;28;20457;-72
2021/03/28 13:34:06;;;;;;;2.70;1.30;;;12.90;36.20;;;;;;5075932;28;20890;-72
2021/03/28 13:36:37;;;;;;;2.15;1.88;;;12.80;35.80;;;;;;5075017;28;20403;-72
2021/03/28 13:39:08;;;;;;;1.27;1.00;;;12.70;37.10;;;;;;5075361;28;20175;-71
2021/03/28 13:41:38;;;;;;;1.90;1.40;;;12.80;36.60;;;;;;5075583;28;20403;-73
2021/03/28 13:44:15;;;;;;;2.97;1.00;;;12.90;36.10;;;;;;5075645;28;20411;-73
2021/03/28 13:46:50;;;;;;;1.73;0.90;;;13.00;35.80;;;;;;5075661;28;21047;-73
2021/03/28 13:49:40;;;;;;;1.50;1.33;;;13.10;35.90;;;;;;5075559;28;20410;-73
2021/03/28 13:52:20;;;;;;;1.23;1.10;;;13.10;35.00;;;;;;5074219;28;20953;-73
2021/03/28 13:55:01;;;;;;;1.37;1.03;;;13.20;36.10;;;;;;5075433;28;20413;-71
2021/03/28 13:57:32;;;;;;;1.13;1.13;;;13.10;34.70;;;;;;5075632;28;20486;-73
2021/03/28 14:00:06;;;;;;;3.93;1.40;;;13.20;35.80;;;;;;5075249;28;20451;-72
2021/03/28 14:02:38;;;;;;;1.33;1.17;;;13.00;33.50;;;;;;5075168;28;20419;-71
2021/03/28 14:05:14;;;;;;;1.37;1.10;;;12.90;34.00;;;;;;5075547;28;20549;-72
2021/03/28 14:07:42;;;;;;;1.17;1.07;;;13.10;37.40;;;;;;5075833;28;20403;-72
2021/03/28 14:10:17;;;;;;;3.23;1.70;;;12.90;35.30;;;;;;5074894;28;20399;-72
2021/03/28 14:13:12;;;;;;;2.10;1.90;;;12.70;35.60;;;;;;5075018;28;20469;-72
2021/03/28 14:15:49;;;;;;;2.33;1.43;;;12.70;39.20;;;;;;5073101;28;20458;-72
2021/03/28 14:18:20;;;;;;;1.00;1.00;;;12.70;38.10;;;;;;5075248;28;20401;-72
2021/03/28 14:20:52;;;;;;;1.50;1.30;;;12.90;35.60;;;;;;5074627;28;20754;-73
2021/03/28 14:23:24;;;;;;;2.63;1.10;;;13.00;39.20;;;;;;5074731;28;20451;-73
2021/03/28 14:26:15;;;;;;;1.70;1.20;;;12.60;38.50;;;;;;5074919;28;20462;-72
2021/03/28 14:28:45;;;;;;;1.30;1.20;;;12.50;38.30;;;;;;5074636;28;20431;-72